Hovedside
METAR-TAF:

METAR-TAF

Lufthavner :

Majuro, Marshalløyene

breddegrad: 07-04N, lengdegrad: 171-17E, høyde over havet: 2 m

Gjeldene værobservasjon

Denne rapporten ble laget for 27 minutter siden, klokken 01:50 UTC
Vind 9 kt fra Nord-nordøst
Temperatur 28°C
Luftfuktighet 79%
Trykk 1006 hPa
Sikt: 24.1 km
Spredte skyer i en høyde av 1400 ft
Spredte skyer i en høyde av 5000 ft
Brutte skyer i en høyde av 12000 ft
Overskyet i en høyde av 30000 ft

METAR: PKMJ 220150Z 02009KT 15SM SCT014 SCT050 BKN120 OVC300 28/24 A2972

Tid: 14:17 (02:17 UTC)

Varsel

Denne rapporten ble laget for 2 timer og 56 minutter siden, klokken 23:21 UTC
Varsel gyldig fra 22. klokken 00 UTC til 22. klokken 24 UTC
Vind 11 kt fra Øst
Sikt: 10 km
Spredte skyer i en høyde av 1400 ft
Spredte skyer i en høyde av 4500 ft
Brutte skyer i en høyde av 12000 ft
regnbyger i nærheten

TAF: PKMJ 212321Z 2200/2224 08011KT P6SM VCSH SCT014 SCT045 BKN120

Værobservasjoner og værvarsel for over 4000 flyplasser (METAR- og TAF-rapporter).

Tilgjengelige stasjoner er representert av de røde og gule prikkene på kartet.

Hold musepekeren over prikken for å se navnet på stasjonen.

Klikk så for å se værobservasjoner og -varsler.

For å forandre kartet kan du klikke på den grønne knappen med svart kryss for å zoome inn, på den grønne knappen med strek for å zoome ut, eller på de grønne pilene for å se tilstøtende kart.


METAR-TAF: